カイロ の空港の天気 - METARとTAF

カイロ国際空港 ( HECA / CAI ) - エジプト [カイロ
飛行場実況気象(Metar)
観測時間04/21 19:00 EET (04/21 17:00 UTC)
風向・風速北北西 5m/s
視程10km以上
天気現象
なし
気温18℃
湿度42%
気圧1018hPa
METARHECA 211700Z 33010KT CAVOK 18/05 Q1018 NOSIG
過去の天気等 Google飛行場航空写真 Wunderground天気予報

過去48時間のMETAR

飛行場予報(TAF)
発表時間: 4/21 13:00 EET (4/21 11:00 UTC)
予報対象時間: 21日14時 EET ~ 22日20時 EET
風向・風速北北西 5m/s
視程10km以上
全天の4割程度の雲 雲底高度 760m
22日5時 EET ~ 22日8時 EET に一時的に
風向・風速不定 2m/s
視程4000m
天気現象煙霧
なし
TAF HECA 211100Z 2112/2218 33010KT 9999 SCT025
TEMPO 2203/2206 VRB03KT 4000 HZ NSC